sensor_id;sensor_type;location;lat;lon;timestamp;pressure;altitude;pressure_sealevel;temperature;humidity
32237;BME280;18726;44.732;10.550;2023-02-28T00:00:43;101694.16;;;4.56;100.00
32237;BME280;18726;44.732;10.550;2023-02-28T00:03:47;101694.19;;;4.51;100.00
32237;BME280;18726;44.732;10.550;2023-02-28T00:06:50;101695.28;;;5.13;100.00
32237;BME280;18726;44.732;10.550;2023-02-28T00:09:54;101692.19;;;5.96;100.00
32237;BME280;18726;44.732;10.550;2023-02-28T00:13:01;101689.50;;;5.49;100.00
32237;BME280;18726;44.732;10.550;2023-02-28T00:16:11;101696.59;;;5.63;100.00
32237;BME280;18726;44.732;10.550;2023-02-28T00:19:16;101702.22;;;5.19;100.00
32237;BME280;18726;44.732;10.550;2023-02-28T00:22:20;101698.47;;;5.44;100.00
32237;BME280;18726;44.732;10.550;2023-02-28T00:25:25;101698.00;;;5.80;100.00
32237;BME280;18726;44.732;10.550;2023-02-28T00:28:28;101690.66;;;5.42;100.00
32237;BME280;18726;44.732;10.550;2023-02-28T00:31:32;101707.81;;;5.23;100.00
32237;BME280;18726;44.732;10.550;2023-02-28T00:34:36;101706.53;;;5.44;100.00
32237;BME280;18726;44.732;10.550;2023-02-28T00:37:41;101697.81;;;6.00;100.00
32237;BME280;18726;44.732;10.550;2023-02-28T00:40:45;101705.03;;;5.57;100.00
32237;BME280;18726;44.732;10.550;2023-02-28T00:43:49;101710.56;;;5.47;100.00
32237;BME280;18726;44.732;10.550;2023-02-28T00:46:52;101709.84;;;5.12;100.00
32237;BME280;18726;44.732;10.550;2023-02-28T00:50:02;101708.88;;;4.98;100.00
32237;BME280;18726;44.732;10.550;2023-02-28T00:53:06;101701.25;;;5.34;100.00
32237;BME280;18726;44.732;10.550;2023-02-28T00:56:10;101703.75;;;5.25;100.00
32237;BME280;18726;44.732;10.550;2023-02-28T00:59:14;101705.00;;;5.09;100.00
32237;BME280;18726;44.732;10.550;2023-02-28T01:02:18;101708.31;;;5.01;100.00
32237;BME280;18726;44.732;10.550;2023-02-28T01:05:23;101710.47;;;4.99;100.00
32237;BME280;18726;44.732;10.550;2023-02-28T01:08:27;101711.69;;;4.88;100.00
32237;BME280;18726;44.732;10.550;2023-02-28T01:11:31;101708.41;;;4.91;100.00
32237;BME280;18726;44.732;10.550;2023-02-28T01:14:35;101716.94;;;4.98;100.00
32237;BME280;18726;44.732;10.550;2023-02-28T01:17:39;101709.69;;;4.98;100.00
32237;BME280;18726;44.732;10.550;2023-02-28T01:20:43;101714.91;;;5.19;100.00
32237;BME280;18726;44.732;10.550;2023-02-28T01:23:47;101714.50;;;5.30;100.00
32237;BME280;18726;44.732;10.550;2023-02-28T01:26:51;101710.66;;;5.36;100.00
32237;BME280;18726;44.732;10.550;2023-02-28T01:29:54;101700.13;;;5.40;100.00
32237;BME280;18726;44.732;10.550;2023-02-28T01:32:58;101707.41;;;5.39;100.00
32237;BME280;18726;44.732;10.550;2023-02-28T01:36:09;101702.34;;;5.57;100.00
32237;BME280;18726;44.732;10.550;2023-02-28T01:39:13;101702.03;;;5.82;100.00
32237;BME280;18726;44.732;10.550;2023-02-28T01:42:17;101704.84;;;5.96;100.00
32237;BME280;18726;44.732;10.550;2023-02-28T01:45:29;101706.63;;;6.05;100.00
32237;BME280;18726;44.732;10.550;2023-02-28T01:48:38;101712.94;;;6.15;100.00
32237;BME280;18726;44.732;10.550;2023-02-28T01:51:49;101709.53;;;6.09;100.00
32237;BME280;18726;44.732;10.550;2023-02-28T01:54:58;101710.19;;;6.01;100.00
32237;BME280;18726;44.732;10.550;2023-02-28T01:58:04;101701.22;;;6.05;100.00
32237;BME280;18726;44.732;10.550;2023-02-28T02:01:09;101701.59;;;6.18;100.00
32237;BME280;18726;44.732;10.550;2023-02-28T02:04:27;101706.84;;;5.85;100.00
32237;BME280;18726;44.732;10.550;2023-02-28T02:07:38;101706.38;;;5.78;100.00
32237;BME280;18726;44.732;10.550;2023-02-28T02:10:48;101702.03;;;5.82;100.00
32237;BME280;18726;44.732;10.550;2023-02-28T02:14:06;101697.41;;;6.06;100.00
32237;BME280;18726;44.732;10.550;2023-02-28T02:17:25;101693.03;;;6.48;100.00
32237;BME280;18726;44.732;10.550;2023-02-28T02:20:51;101692.19;;;6.34;100.00
32237;BME280;18726;44.732;10.550;2023-02-28T02:37:43;101714.63;;;6.10;100.00
32237;BME280;18726;44.732;10.550;2023-02-28T02:44:24;101709.28;;;5.63;100.00
32237;BME280;18726;44.732;10.550;2023-02-28T02:47:30;101720.03;;;5.15;100.00
32237;BME280;18726;44.732;10.550;2023-02-28T02:50:48;101718.16;;;4.87;100.00
32237;BME280;18726;44.732;10.550;2023-02-28T02:53:57;101717.16;;;4.72;100.00
32237;BME280;18726;44.732;10.550;2023-02-28T02:57:07;101720.69;;;4.68;100.00
32237;BME280;18726;44.732;10.550;2023-02-28T03:00:15;101719.38;;;4.65;100.00
32237;BME280;18726;44.732;10.550;2023-02-28T03:03:21;101712.31;;;4.74;100.00
32237;BME280;18726;44.732;10.550;2023-02-28T03:06:33;101718.25;;;4.71;100.00
32237;BME280;18726;44.732;10.550;2023-02-28T03:09:37;101722.59;;;4.67;100.00
32237;BME280;18726;44.732;10.550;2023-02-28T03:12:51;101709.25;;;4.86;100.00
32237;BME280;18726;44.732;10.550;2023-02-28T03:22:54;101710.69;;;4.73;100.00
32237;BME280;18726;44.732;10.550;2023-02-28T03:26:06;101718.78;;;4.73;100.00
32237;BME280;18726;44.732;10.550;2023-02-28T03:29:21;101714.19;;;4.74;100.00
32237;BME280;18726;44.732;10.550;2023-02-28T03:32:33;101705.22;;;5.18;100.00
32237;BME280;18726;44.732;10.550;2023-02-28T03:35:42;101713.69;;;5.01;100.00
32237;BME280;18726;44.732;10.550;2023-02-28T03:38:57;101713.03;;;5.14;100.00
32237;BME280;18726;44.732;10.550;2023-02-28T03:42:27;101707.66;;;5.62;100.00
32237;BME280;18726;44.732;10.550;2023-02-28T03:45:34;101711.78;;;5.54;100.00
32237;BME280;18726;44.732;10.550;2023-02-28T03:48:45;101714.91;;;5.42;100.00
32237;BME280;18726;44.732;10.550;2023-02-28T03:51:52;101713.63;;;5.59;100.00
32237;BME280;18726;44.732;10.550;2023-02-28T03:55:01;101713.03;;;5.86;100.00
32237;BME280;18726;44.732;10.550;2023-02-28T03:58:22;101715.94;;;5.94;100.00
32237;BME280;18726;44.732;10.550;2023-02-28T04:01:43;101722.94;;;5.48;100.00
32237;BME280;18726;44.732;10.550;2023-02-28T04:04:47;101732.41;;;5.16;100.00
32237;BME280;18726;44.732;10.550;2023-02-28T04:07:52;101718.00;;;5.55;100.00
32237;BME280;18726;44.732;10.550;2023-02-28T04:11:04;101723.69;;;5.24;100.00
32237;BME280;18726;44.732;10.550;2023-02-28T04:14:11;101725.44;;;5.39;100.00
32237;BME280;18726;44.732;10.550;2023-02-28T04:17:15;101722.00;;;5.04;100.00
32237;BME280;18726;44.732;10.550;2023-02-28T04:20:19;101724.47;;;5.30;100.00
32237;BME280;18726;44.732;10.550;2023-02-28T04:23:23;101720.31;;;5.85;100.00
32237;BME280;18726;44.732;10.550;2023-02-28T04:26:31;101726.44;;;6.15;100.00
32237;BME280;18726;44.732;10.550;2023-02-28T04:29:35;101722.06;;;6.37;100.00
32237;BME280;18726;44.732;10.550;2023-02-28T04:32:39;101720.13;;;6.75;100.00
32237;BME280;18726;44.732;10.550;2023-02-28T04:35:43;101721.03;;;7.03;100.00
32237;BME280;18726;44.732;10.550;2023-02-28T04:38:47;101712.84;;;7.22;100.00
32237;BME280;18726;44.732;10.550;2023-02-28T04:41:51;101720.47;;;7.20;100.00
32237;BME280;18726;44.732;10.550;2023-02-28T04:44:55;101713.00;;;7.44;100.00
32237;BME280;18726;44.732;10.550;2023-02-28T04:47:58;101721.06;;;7.31;100.00
32237;BME280;18726;44.732;10.550;2023-02-28T04:51:03;101729.59;;;7.52;100.00
32237;BME280;18726;44.732;10.550;2023-02-28T04:54:07;101727.69;;;7.52;100.00
32237;BME280;18726;44.732;10.550;2023-02-28T04:57:11;101737.72;;;7.65;100.00
32237;BME280;18726;44.732;10.550;2023-02-28T05:00:15;101724.81;;;7.76;100.00
32237;BME280;18726;44.732;10.550;2023-02-28T05:03:20;101733.81;;;7.71;100.00
32237;BME280;18726;44.732;10.550;2023-02-28T05:06:28;101736.31;;;7.68;100.00
32237;BME280;18726;44.732;10.550;2023-02-28T05:09:32;101740.63;;;7.69;100.00
32237;BME280;18726;44.732;10.550;2023-02-28T05:12:39;101739.41;;;7.61;100.00
32237;BME280;18726;44.732;10.550;2023-02-28T05:15:42;101742.91;;;7.62;100.00
32237;BME280;18726;44.732;10.550;2023-02-28T05:18:47;101741.22;;;7.66;100.00
32237;BME280;18726;44.732;10.550;2023-02-28T05:21:53;101747.91;;;7.55;100.00
32237;BME280;18726;44.732;10.550;2023-02-28T05:24:57;101739.31;;;7.53;100.00
32237;BME280;18726;44.732;10.550;2023-02-28T05:28:01;101744.41;;;7.54;100.00
32237;BME280;18726;44.732;10.550;2023-02-28T05:31:05;101749.91;;;7.35;100.00
32237;BME280;18726;44.732;10.550;2023-02-28T05:34:09;101748.59;;;6.87;100.00
32237;BME280;18726;44.732;10.550;2023-02-28T05:37:15;101750.19;;;6.88;100.00
32237;BME280;18726;44.732;10.550;2023-02-28T05:40:19;101761.41;;;6.62;100.00
32237;BME280;18726;44.732;10.550;2023-02-28T05:43:24;101763.63;;;6.18;100.00
32237;BME280;18726;44.732;10.550;2023-02-28T05:46:27;101762.50;;;5.76;100.00
32237;BME280;18726;44.732;10.550;2023-02-28T05:49:31;101758.94;;;5.57;100.00
32237;BME280;18726;44.732;10.550;2023-02-28T05:52:35;101756.78;;;5.30;100.00
32237;BME280;18726;44.732;10.550;2023-02-28T05:55:39;101764.28;;;5.04;100.00
32237;BME280;18726;44.732;10.550;2023-02-28T05:58:44;101765.34;;;5.08;100.00
32237;BME280;18726;44.732;10.550;2023-02-28T06:01:47;101768.28;;;4.78;100.00
32237;BME280;18726;44.732;10.550;2023-02-28T06:04:51;101772.28;;;4.36;100.00
32237;BME280;18726;44.732;10.550;2023-02-28T06:07:55;101776.03;;;4.45;100.00
32237;BME280;18726;44.732;10.550;2023-02-28T06:11:03;101768.91;;;4.15;100.00
32237;BME280;18726;44.732;10.550;2023-02-28T06:14:07;101778.88;;;4.10;100.00
32237;BME280;18726;44.732;10.550;2023-02-28T06:17:16;101776.66;;;4.32;100.00
32237;BME280;18726;44.732;10.550;2023-02-28T06:20:20;101774.78;;;4.66;100.00
32237;BME280;18726;44.732;10.550;2023-02-28T06:23:23;101777.94;;;4.84;100.00
32237;BME280;18726;44.732;10.550;2023-02-28T06:26:27;101791.44;;;4.73;100.00
32237;BME280;18726;44.732;10.550;2023-02-28T06:29:32;101799.53;;;4.68;100.00
32237;BME280;18726;44.732;10.550;2023-02-28T06:32:37;101803.59;;;4.66;100.00
32237;BME280;18726;44.732;10.550;2023-02-28T06:35:44;101793.81;;;4.80;100.00
32237;BME280;18726;44.732;10.550;2023-02-28T06:38:48;101798.34;;;4.90;100.00
32237;BME280;18726;44.732;10.550;2023-02-28T06:41:54;101806.44;;;4.85;100.00
32237;BME280;18726;44.732;10.550;2023-02-28T06:44:58;101809.41;;;4.83;100.00
32237;BME280;18726;44.732;10.550;2023-02-28T06:48:02;101808.53;;;4.93;100.00
32237;BME280;18726;44.732;10.550;2023-02-28T06:51:15;101813.16;;;4.87;100.00
32237;BME280;18726;44.732;10.550;2023-02-28T06:54:19;101812.78;;;4.99;100.00
32237;BME280;18726;44.732;10.550;2023-02-28T06:57:23;101815.53;;;4.94;100.00
32237;BME280;18726;44.732;10.550;2023-02-28T07:00:28;101812.47;;;5.05;100.00
32237;BME280;18726;44.732;10.550;2023-02-28T07:03:32;101802.97;;;5.47;100.00
32237;BME280;18726;44.732;10.550;2023-02-28T07:06:36;101813.53;;;5.67;100.00
32237;BME280;18726;44.732;10.550;2023-02-28T07:09:40;101814.59;;;5.14;100.00
32237;BME280;18726;44.732;10.550;2023-02-28T07:12:43;101819.28;;;4.93;100.00
32237;BME280;18726;44.732;10.550;2023-02-28T07:15:55;101832.25;;;4.91;100.00
32237;BME280;18726;44.732;10.550;2023-02-28T07:18:59;101821.41;;;5.01;100.00
32237;BME280;18726;44.732;10.550;2023-02-28T07:22:03;101826.78;;;5.01;100.00
32237;BME280;18726;44.732;10.550;2023-02-28T12:11:35;101807.63;;;11.43;85.48
32237;BME280;18726;44.732;10.550;2023-02-28T12:14:56;101802.88;;;11.06;85.41
32237;BME280;18726;44.732;10.550;2023-02-28T12:27:51;101784.97;;;11.69;100.00
32237;BME280;18726;44.732;10.550;2023-02-28T12:31:08;101777.94;;;12.06;90.74
32237;BME280;18726;44.732;10.550;2023-02-28T12:34:16;101769.41;;;12.58;99.57
32237;BME280;18726;44.732;10.550;2023-02-28T12:37:34;101763.47;;;13.09;94.15
32237;BME280;18726;44.732;10.550;2023-02-28T12:41:02;101762.28;;;13.19;82.08
32237;BME280;18726;44.732;10.550;2023-02-28T12:44:13;101773.50;;;12.84;84.37
32237;BME280;18726;44.732;10.550;2023-02-28T12:47:20;101761.91;;;12.88;71.18
32237;BME280;18726;44.732;10.550;2023-02-28T12:50:24;101750.81;;;12.93;78.95
32237;BME280;18726;44.732;10.550;2023-02-28T13:00:17;101740.38;;;12.74;89.91
32237;BME280;18726;44.732;10.550;2023-02-28T13:10:19;101728.97;;;12.18;90.33
32237;BME280;18726;44.732;10.550;2023-02-28T13:13:25;101727.78;;;12.28;87.34
32237;BME280;18726;44.732;10.550;2023-02-28T13:20:28;101728.25;;;11.41;78.51
32237;BME280;18726;44.732;10.550;2023-02-28T13:29:53;101712.28;;;10.41;83.67
32237;BME280;18726;44.732;10.550;2023-02-28T13:46:06;101694.72;;;11.20;85.89
32237;BME280;18726;44.732;10.550;2023-02-28T13:56:38;101694.13;;;11.06;78.39
32237;BME280;18726;44.732;10.550;2023-02-28T14:06:35;101679.69;;;10.50;90.18
32237;BME280;18726;44.732;10.550;2023-02-28T14:09:46;101686.56;;;10.22;83.98
32237;BME280;18726;44.732;10.550;2023-02-28T14:16:02;101672.50;;;10.20;87.52
32237;BME280;18726;44.732;10.550;2023-02-28T14:19:19;101672.53;;;10.37;81.50
32237;BME280;18726;44.732;10.550;2023-02-28T14:22:55;101673.47;;;10.24;80.54
32237;BME280;18726;44.732;10.550;2023-02-28T14:36:44;101654.72;;;9.79;85.97
32237;BME280;18726;44.732;10.550;2023-02-28T14:39:48;101653.09;;;9.69;88.79
32237;BME280;18726;44.732;10.550;2023-02-28T14:42:58;101645.13;;;9.64;93.45
32237;BME280;18726;44.732;10.550;2023-02-28T14:46:05;101654.06;;;9.65;90.35
32237;BME280;18726;44.732;10.550;2023-02-28T14:49:16;101641.88;;;9.45;90.34
32237;BME280;18726;44.732;10.550;2023-02-28T14:52:26;101642.69;;;9.45;89.50
32237;BME280;18726;44.732;10.550;2023-02-28T14:55:36;101641.44;;;9.52;100.00
32237;BME280;18726;44.732;10.550;2023-02-28T14:58:40;101637.25;;;9.54;92.63
32237;BME280;18726;44.732;10.550;2023-02-28T15:01:44;101644.91;;;9.43;89.62
32237;BME280;18726;44.732;10.550;2023-02-28T15:05:00;101645.19;;;9.33;87.05
32237;BME280;18726;44.732;10.550;2023-02-28T15:08:13;101642.56;;;9.11;94.53
32237;BME280;18726;44.732;10.550;2023-02-28T15:11:18;101645.75;;;9.13;94.28
32237;BME280;18726;44.732;10.550;2023-02-28T15:14:22;101645.84;;;8.99;93.71
32237;BME280;18726;44.732;10.550;2023-02-28T15:17:29;101640.91;;;8.93;98.13
32237;BME280;18726;44.732;10.550;2023-02-28T15:20:34;101637.69;;;8.91;100.00
32237;BME280;18726;44.732;10.550;2023-02-28T15:23:41;101634.81;;;8.96;94.84
32237;BME280;18726;44.732;10.550;2023-02-28T15:26:48;101631.16;;;8.92;98.54
32237;BME280;18726;44.732;10.550;2023-02-28T15:29:55;101632.47;;;9.03;100.00
32237;BME280;18726;44.732;10.550;2023-02-28T15:36:16;101622.53;;;8.90;97.39
32237;BME280;18726;44.732;10.550;2023-02-28T15:39:26;101621.16;;;8.70;93.77
32237;BME280;18726;44.732;10.550;2023-02-28T15:42:33;101630.28;;;8.52;100.00
32237;BME280;18726;44.732;10.550;2023-02-28T15:45:49;101614.84;;;8.52;100.00
32237;BME280;18726;44.732;10.550;2023-02-28T15:48:55;101623.47;;;8.54;100.00
32237;BME280;18726;44.732;10.550;2023-02-28T15:52:00;101622.22;;;8.60;100.00
32237;BME280;18726;44.732;10.550;2023-02-28T15:55:18;101617.19;;;8.45;100.00
32237;BME280;18726;44.732;10.550;2023-02-28T15:58:24;101612.88;;;8.44;100.00
32237;BME280;18726;44.732;10.550;2023-02-28T16:01:33;101606.97;;;8.42;100.00
32237;BME280;18726;44.732;10.550;2023-02-28T16:04:37;101605.19;;;8.37;100.00
32237;BME280;18726;44.732;10.550;2023-02-28T16:07:42;101606.34;;;8.45;100.00
32237;BME280;18726;44.732;10.550;2023-02-28T16:10:47;101607.78;;;8.42;100.00
32237;BME280;18726;44.732;10.550;2023-02-28T16:13:52;101601.72;;;8.37;100.00
32237;BME280;18726;44.732;10.550;2023-02-28T16:17:02;101600.31;;;8.26;100.00
32237;BME280;18726;44.732;10.550;2023-02-28T16:20:15;101591.69;;;8.24;100.00
32237;BME280;18726;44.732;10.550;2023-02-28T16:23:19;101598.72;;;8.25;100.00
32237;BME280;18726;44.732;10.550;2023-02-28T16:26:23;101585.91;;;8.39;100.00
32237;BME280;18726;44.732;10.550;2023-02-28T16:29:31;101587.47;;;8.31;100.00
32237;BME280;18726;44.732;10.550;2023-02-28T16:32:36;101585.78;;;8.22;100.00
32237;BME280;18726;44.732;10.550;2023-02-28T16:35:39;101580.13;;;8.09;100.00
32237;BME280;18726;44.732;10.550;2023-02-28T16:38:43;101586.16;;;8.06;100.00
32237;BME280;18726;44.732;10.550;2023-02-28T16:41:48;101584.19;;;7.98;100.00
32237;BME280;18726;44.732;10.550;2023-02-28T16:44:54;101579.09;;;8.19;100.00
32237;BME280;18726;44.732;10.550;2023-02-28T16:47:59;101576.44;;;8.50;100.00
32237;BME280;18726;44.732;10.550;2023-02-28T16:51:03;101582.41;;;8.61;100.00
32237;BME280;18726;44.732;10.550;2023-02-28T16:54:07;101577.38;;;8.45;100.00
32237;BME280;18726;44.732;10.550;2023-02-28T16:57:22;101591.13;;;8.13;100.00
32237;BME280;18726;44.732;10.550;2023-02-28T17:00:27;101593.31;;;8.02;100.00
32237;BME280;18726;44.732;10.550;2023-02-28T17:03:31;101591.78;;;7.74;100.00
32237;BME280;18726;44.732;10.550;2023-02-28T17:06:35;101597.75;;;7.49;100.00
32237;BME280;18726;44.732;10.550;2023-02-28T17:09:39;101598.72;;;7.53;100.00
32237;BME280;18726;44.732;10.550;2023-02-28T17:12:44;101606.47;;;7.45;100.00
32237;BME280;18726;44.732;10.550;2023-02-28T17:15:48;101603.16;;;7.49;100.00
32237;BME280;18726;44.732;10.550;2023-02-28T17:18:54;101606.56;;;7.40;100.00
32237;BME280;18726;44.732;10.550;2023-02-28T17:21:57;101604.50;;;7.73;100.00
32237;BME280;18726;44.732;10.550;2023-02-28T17:25:01;101601.44;;;7.89;100.00
32237;BME280;18726;44.732;10.550;2023-02-28T17:28:05;101611.06;;;7.81;100.00
32237;BME280;18726;44.732;10.550;2023-02-28T17:31:09;101616.53;;;7.54;100.00
32237;BME280;18726;44.732;10.550;2023-02-28T17:34:13;101619.97;;;7.32;100.00
32237;BME280;18726;44.732;10.550;2023-02-28T17:37:24;101622.38;;;7.33;100.00
32237;BME280;18726;44.732;10.550;2023-02-28T17:40:28;101605.13;;;7.57;100.00
32237;BME280;18726;44.732;10.550;2023-02-28T17:43:32;101612.94;;;7.72;100.00
32237;BME280;18726;44.732;10.550;2023-02-28T17:46:36;101609.66;;;8.20;100.00
32237;BME280;18726;44.732;10.550;2023-02-28T17:49:41;101619.59;;;7.88;100.00
32237;BME280;18726;44.732;10.550;2023-02-28T17:52:44;101621.72;;;7.77;100.00
32237;BME280;18726;44.732;10.550;2023-02-28T17:55:49;101619.34;;;7.76;100.00
32237;BME280;18726;44.732;10.550;2023-02-28T17:58:55;101623.13;;;7.75;100.00
32237;BME280;18726;44.732;10.550;2023-02-28T18:02:00;101611.84;;;7.95;100.00
32237;BME280;18726;44.732;10.550;2023-02-28T18:05:04;101604.66;;;8.13;100.00
32237;BME280;18726;44.732;10.550;2023-02-28T18:08:15;101616.06;;;8.46;100.00
32237;BME280;18726;44.732;10.550;2023-02-28T18:11:21;101608.56;;;8.65;100.00
32237;BME280;18726;44.732;10.550;2023-02-28T18:14:26;101610.25;;;8.84;100.00
32237;BME280;18726;44.732;10.550;2023-02-28T18:17:30;101603.28;;;8.91;100.00
32237;BME280;18726;44.732;10.550;2023-02-28T18:20:34;101609.56;;;8.78;100.00
32237;BME280;18726;44.732;10.550;2023-02-28T18:23:38;101609.44;;;8.83;100.00
32237;BME280;18726;44.732;10.550;2023-02-28T18:26:50;101605.81;;;8.88;100.00
32237;BME280;18726;44.732;10.550;2023-02-28T18:29:54;101606.88;;;8.78;100.00
32237;BME280;18726;44.732;10.550;2023-02-28T18:32:59;101616.44;;;8.53;100.00
32237;BME280;18726;44.732;10.550;2023-02-28T18:36:03;101616.44;;;8.53;100.00
32237;BME280;18726;44.732;10.550;2023-02-28T18:39:08;101607.91;;;8.68;100.00
32237;BME280;18726;44.732;10.550;2023-02-28T18:42:14;101617.69;;;8.47;100.00
32237;BME280;18726;44.732;10.550;2023-02-28T18:45:18;101614.13;;;8.69;100.00
32237;BME280;18726;44.732;10.550;2023-02-28T18:48:22;101613.25;;;8.51;100.00
32237;BME280;18726;44.732;10.550;2023-02-28T18:51:27;101613.81;;;8.62;100.00
32237;BME280;18726;44.732;10.550;2023-02-28T18:54:32;101615.13;;;8.73;100.00
32237;BME280;18726;44.732;10.550;2023-02-28T18:57:36;101615.91;;;8.73;100.00
32237;BME280;18726;44.732;10.550;2023-02-28T19:00:40;101615.88;;;8.65;100.00
32237;BME280;18726;44.732;10.550;2023-02-28T19:03:44;101603.59;;;8.67;100.00
32237;BME280;18726;44.732;10.550;2023-02-28T19:06:48;101601.38;;;8.69;100.00
32237;BME280;18726;44.732;10.550;2023-02-28T19:09:52;101588.56;;;8.53;100.00
32237;BME280;18726;44.732;10.550;2023-02-28T19:12:56;101600.81;;;8.50;100.00
32237;BME280;18726;44.732;10.550;2023-02-28T19:16:01;101603.81;;;8.49;100.00
32237;BME280;18726;44.732;10.550;2023-02-28T19:19:05;101596.56;;;8.58;100.00
32237;BME280;18726;44.732;10.550;2023-02-28T19:22:09;101590.06;;;8.67;100.00
32237;BME280;18726;44.732;10.550;2023-02-28T19:25:12;101594.03;;;8.92;100.00
32237;BME280;18726;44.732;10.550;2023-02-28T19:28:16;101587.38;;;9.07;100.00
32237;BME280;18726;44.732;10.550;2023-02-28T19:31:23;101587.38;;;9.07;100.00
32237;BME280;18726;44.732;10.550;2023-02-28T19:34:27;101587.66;;;8.97;100.00
32237;BME280;18726;44.732;10.550;2023-02-28T19:37:31;101583.22;;;9.01;100.00
32237;BME280;18726;44.732;10.550;2023-02-28T19:40:35;101590.09;;;9.07;100.00
32237;BME280;18726;44.732;10.550;2023-02-28T19:43:39;101593.00;;;9.19;100.00
32237;BME280;18726;44.732;10.550;2023-02-28T19:46:43;101589.38;;;9.24;100.00
32237;BME280;18726;44.732;10.550;2023-02-28T19:49:47;101584.53;;;9.12;100.00
32237;BME280;18726;44.732;10.550;2023-02-28T19:52:51;101589.41;;;8.93;100.00
32237;BME280;18726;44.732;10.550;2023-02-28T19:55:55;101591.50;;;8.65;100.00
32237;BME280;18726;44.732;10.550;2023-02-28T19:58:59;101613.94;;;7.62;100.00
32237;BME280;18726;44.732;10.550;2023-02-28T20:02:03;101613.91;;;6.66;100.00
32237;BME280;18726;44.732;10.550;2023-02-28T20:05:07;101605.28;;;6.51;100.00
32237;BME280;18726;44.732;10.550;2023-02-28T20:08:12;101595.25;;;6.84;100.00
32237;BME280;18726;44.732;10.550;2023-02-28T20:11:16;101598.50;;;7.63;100.00
32237;BME280;18726;44.732;10.550;2023-02-28T20:14:20;101587.50;;;7.95;100.00
32237;BME280;18726;44.732;10.550;2023-02-28T20:17:24;101581.38;;;8.26;100.00
32237;BME280;18726;44.732;10.550;2023-02-28T20:20:28;101579.19;;;8.14;100.00
32237;BME280;18726;44.732;10.550;2023-02-28T20:23:31;101587.50;;;8.18;100.00
32237;BME280;18726;44.732;10.550;2023-02-28T20:26:35;101600.31;;;8.03;100.00
32237;BME280;18726;44.732;10.550;2023-02-28T20:29:40;101599.69;;;8.29;100.00
32237;BME280;18726;44.732;10.550;2023-02-28T20:32:44;101625.28;;;7.87;100.00
32237;BME280;18726;44.732;10.550;2023-02-28T20:35:47;101623.84;;;7.53;100.00
32237;BME280;18726;44.732;10.550;2023-02-28T20:38:51;101605.06;;;7.84;100.00
32237;BME280;18726;44.732;10.550;2023-02-28T20:41:55;101587.00;;;8.16;100.00
32237;BME280;18726;44.732;10.550;2023-02-28T20:44:59;101590.16;;;8.54;100.00
32237;BME280;18726;44.732;10.550;2023-02-28T20:48:03;101590.72;;;8.64;100.00
32237;BME280;18726;44.732;10.550;2023-02-28T20:51:08;101593.88;;;8.66;100.00
32237;BME280;18726;44.732;10.550;2023-02-28T20:54:11;101601.25;;;8.66;100.00
32237;BME280;18726;44.732;10.550;2023-02-28T20:57:15;101610.72;;;8.86;100.00
32237;BME280;18726;44.732;10.550;2023-02-28T21:00:19;101610.13;;;8.66;100.00
32237;BME280;18726;44.732;10.550;2023-02-28T21:03:24;101625.47;;;8.04;100.00
32237;BME280;18726;44.732;10.550;2023-02-28T21:06:39;101624.97;;;7.38;100.00
32237;BME280;18726;44.732;10.550;2023-02-28T21:09:43;101627.38;;;6.85;100.00
32237;BME280;18726;44.732;10.550;2023-02-28T21:12:49;101620.09;;;6.53;100.00
32237;BME280;18726;44.732;10.550;2023-02-28T21:15:52;101621.19;;;7.12;100.00
32237;BME280;18726;44.732;10.550;2023-02-28T21:18:57;101612.66;;;7.32;100.00
32237;BME280;18726;44.732;10.550;2023-02-28T21:22:07;101616.13;;;7.74;100.00
32237;BME280;18726;44.732;10.550;2023-02-28T21:25:11;101610.25;;;7.94;100.00
32237;BME280;18726;44.732;10.550;2023-02-28T21:28:15;101602.41;;;8.06;100.00
32237;BME280;18726;44.732;10.550;2023-02-28T21:31:20;101603.94;;;8.21;100.00
32237;BME280;18726;44.732;10.550;2023-02-28T21:34:24;101606.84;;;8.25;100.00
32237;BME280;18726;44.732;10.550;2023-02-28T21:37:30;101616.19;;;8.41;100.00
32237;BME280;18726;44.732;10.550;2023-02-28T21:40:34;101625.78;;;8.25;100.00
32237;BME280;18726;44.732;10.550;2023-02-28T21:43:38;101615.44;;;8.04;100.00
32237;BME280;18726;44.732;10.550;2023-02-28T21:46:44;101625.84;;;7.75;100.00
32237;BME280;18726;44.732;10.550;2023-02-28T21:49:49;101635.34;;;6.76;100.00
32237;BME280;18726;44.732;10.550;2023-02-28T21:52:53;101631.41;;;6.55;100.00
32237;BME280;18726;44.732;10.550;2023-02-28T21:59:25;101630.31;;;5.62;100.00
32237;BME280;18726;44.732;10.550;2023-02-28T22:02:28;101622.19;;;6.24;100.00
32237;BME280;18726;44.732;10.550;2023-02-28T22:08:52;101615.25;;;5.80;100.00
32237;BME280;18726;44.732;10.550;2023-02-28T22:11:57;101622.78;;;6.21;100.00
32237;BME280;18726;44.732;10.550;2023-02-28T22:15:01;101623.78;;;5.87;100.00
32237;BME280;18726;44.732;10.550;2023-02-28T22:18:05;101611.44;;;5.81;100.00
32237;BME280;18726;44.732;10.550;2023-02-28T22:21:10;101617.59;;;5.68;100.00
32237;BME280;18726;44.732;10.550;2023-02-28T22:24:15;101624.63;;;5.64;100.00
32237;BME280;18726;44.732;10.550;2023-02-28T22:27:29;101616.81;;;6.37;100.00
32237;BME280;18726;44.732;10.550;2023-02-28T22:30:33;101607.91;;;6.69;100.00
32237;BME280;18726;44.732;10.550;2023-02-28T22:33:43;101608.19;;;6.22;100.00
32237;BME280;18726;44.732;10.550;2023-02-28T22:36:47;101612.34;;;6.79;100.00